Time;durP1;ratioP1;P1;durP2;ratioP2;P2;SDS_P1;SDS_P2;PMS_P1;PMS_P2;Temp;Humidity;BMP_temperature;BMP_pressure;BME280_temperature;BME280_humidity;BME280_pressure;Samples;Min_cycle;Max_cycle;Signal;HPM_P1;HPM_P2
2021/12/02 00:01:21;;;;;;;4.80;2.30;;;6.90;99.90;;;;;;5054053;28;20183;-62
2021/12/02 00:03:47;;;;;;;3.95;2.33;;;6.90;99.90;;;;;;5053567;28;20187;-63
2021/12/02 00:06:17;;;;;;;5.03;1.90;;;6.80;99.90;;;;;;5053170;28;20167;-62
2021/12/02 00:08:43;;;;;;;6.53;1.85;;;6.70;99.90;;;;;;5055067;28;20218;-63
2021/12/02 00:11:09;;;;;;;5.30;2.13;;;6.60;99.90;;;;;;5053865;28;20175;-62
2021/12/02 00:13:59;;;;;;;5.18;2.70;;;6.60;99.90;;;;;;5053833;28;20206;-62
2021/12/02 00:16:53;;;;;;;2.92;1.90;;;6.60;99.90;;;;;;5054676;28;20252;-62
2021/12/02 00:22:05;;;;;;;3.75;1.80;;;6.70;99.90;;;;;;5054618;28;20224;-62
2021/12/02 00:24:35;;;;;;;4.32;1.70;;;6.80;99.90;;;;;;5054750;28;20191;-61
2021/12/02 00:27:08;;;;;;;3.90;1.70;;;6.90;99.90;;;;;;5055007;28;20166;-62
2021/12/02 00:29:36;;;;;;;2.17;1.17;;;6.80;99.90;;;;;;5054971;28;20155;-65
2021/12/02 00:32:06;;;;;;;4.18;1.55;;;6.90;99.90;;;;;;5054572;28;20233;-62
2021/12/02 00:34:33;;;;;;;6.28;1.40;;;6.80;99.90;;;;;;5054281;28;20170;-62
2021/12/02 00:37:01;;;;;;;7.07;2.08;;;6.90;99.90;;;;;;5053348;28;20182;-63
2021/12/02 00:39:29;;;;;;;4.35;1.48;;;7.00;99.90;;;;;;5054438;28;20298;-62
2021/12/02 00:41:55;;;;;;;3.50;1.38;;;6.90;99.90;;;;;;5054423;28;20617;-62
2021/12/02 00:44:21;;;;;;;6.28;1.40;;;6.90;99.90;;;;;;5053136;28;20545;-62
2021/12/02 00:46:48;;;;;;;7.00;2.30;;;6.90;99.90;;;;;;5054651;28;20689;-63
2021/12/02 00:49:17;;;;;;;5.97;1.70;;;6.70;99.90;;;;;;5054247;28;20594;-62
2021/12/02 00:51:47;;;;;;;4.97;1.33;;;6.60;99.90;;;;;;5054187;28;20174;-62
2021/12/02 00:54:13;;;;;;;4.72;1.38;;;6.60;99.90;;;;;;5054154;28;20167;-62
2021/12/02 00:56:40;;;;;;;5.43;1.35;;;6.60;99.90;;;;;;5054411;28;20171;-62
2021/12/02 00:59:07;;;;;;;2.58;1.15;;;6.50;99.90;;;;;;5054361;28;20205;-62
2021/12/02 01:01:36;;;;;;;5.88;1.48;;;6.50;99.90;;;;;;5053817;28;20253;-62
2021/12/02 01:04:11;;;;;;;2.55;1.40;;;6.50;99.90;;;;;;5053953;28;20187;-62
2021/12/02 01:06:37;;;;;;;4.25;1.30;;;6.50;99.90;;;;;;5054052;28;20261;-61
2021/12/02 01:09:05;;;;;;;5.88;1.10;;;6.40;99.90;;;;;;5053982;28;20183;-62
2021/12/02 01:11:31;;;;;;;4.45;1.30;;;6.40;99.90;;;;;;5054154;28;20209;-62
2021/12/02 01:13:57;;;;;;;6.05;1.30;;;6.40;99.90;;;;;;5054087;28;20171;-62
2021/12/02 01:16:24;;;;;;;4.53;1.30;;;6.50;99.90;;;;;;5053787;28;20194;-62
2021/12/02 01:18:50;;;;;;;4.72;1.40;;;6.50;99.90;;;;;;5054021;28;20256;-62
2021/12/02 01:21:19;;;;;;;6.30;1.15;;;6.50;99.90;;;;;;5053496;28;20196;-62
2021/12/02 01:23:50;;;;;;;4.88;1.30;;;6.50;99.90;;;;;;5053689;28;20171;-62
2021/12/02 01:26:19;;;;;;;6.45;2.00;;;6.60;99.90;;;;;;5053846;28;20171;-62
2021/12/02 01:28:46;;;;;;;9.65;2.30;;;6.70;99.90;;;;;;5053583;28;20198;-62
2021/12/02 01:31:13;;;;;;;7.40;2.15;;;6.70;99.90;;;;;;5053793;28;20236;-62
2021/12/02 01:33:43;;;;;;;5.55;1.60;;;6.80;99.90;;;;;;5053483;28;20189;-62
2021/12/02 01:36:10;;;;;;;7.78;1.80;;;6.70;99.90;;;;;;5053507;28;20221;-62
2021/12/02 01:38:35;;;;;;;4.53;2.05;;;6.60;99.90;;;;;;5052231;28;20179;-62
2021/12/02 01:41:03;;;;;;;7.03;2.20;;;6.60;99.90;;;;;;5052424;28;20168;-62
2021/12/02 01:43:49;;;;;;;9.80;1.67;;;6.60;99.90;;;;;;5053164;28;20174;-62
2021/12/02 01:46:19;;;;;;;6.57;1.77;;;6.50;99.90;;;;;;5052786;28;20229;-62
2021/12/02 01:48:49;;;;;;;7.32;2.03;;;6.50;99.90;;;;;;5053382;28;20548;-62
2021/12/02 01:51:18;;;;;;;6.10;1.30;;;6.40;99.90;;;;;;5052139;28;20171;-62
2021/12/02 01:53:48;;;;;;;5.40;1.83;;;6.40;99.90;;;;;;5052077;28;20270;-62
2021/12/02 01:56:16;;;;;;;6.00;1.63;;;6.30;99.90;;;;;;5053703;28;20152;-62
2021/12/02 01:58:48;;;;;;;6.00;1.33;;;6.40;99.90;;;;;;5053450;28;20670;-61
2021/12/02 02:01:26;;;;;;;9.73;2.13;;;6.40;99.90;;;;;;5053293;28;20167;-62
2021/12/02 02:03:54;;;;;;;3.60;1.10;;;6.40;99.90;;;;;;5053272;28;20162;-62
2021/12/02 02:06:29;;;;;;;5.47;1.77;;;6.40;99.90;;;;;;5052932;28;20175;-62
2021/12/02 02:08:59;;;;;;;5.35;1.50;;;6.40;99.90;;;;;;5053232;28;20170;-62
2021/12/02 02:11:30;;;;;;;8.00;1.60;;;6.30;99.90;;;;;;5052537;28;20632;-62
2021/12/02 02:13:58;;;;;;;4.80;1.65;;;6.40;99.90;;;;;;5053316;28;20171;-62
2021/12/02 02:16:25;;;;;;;5.18;1.60;;;6.40;99.90;;;;;;5052980;28;20194;-62
2021/12/02 02:18:51;;;;;;;3.75;1.67;;;6.40;99.90;;;;;;5051779;28;20273;-62
2021/12/02 02:21:19;;;;;;;4.55;1.45;;;6.40;99.90;;;;;;5053087;28;20184;-61
2021/12/02 02:23:50;;;;;;;6.38;1.83;;;6.40;99.90;;;;;;5052804;28;20525;-62
2021/12/02 02:26:23;;;;;;;7.28;1.85;;;6.40;99.90;;;;;;5053064;28;20190;-62
2021/12/02 02:28:50;;;;;;;6.53;1.38;;;6.30;99.90;;;;;;5053730;28;20156;-62
2021/12/02 02:31:17;;;;;;;4.72;1.50;;;6.30;99.90;;;;;;5056912;28;20202;-61
2021/12/02 02:33:48;;;;;;;6.38;2.25;;;6.30;99.90;;;;;;5056819;28;20170;-61
2021/12/02 02:36:15;;;;;;;5.90;1.80;;;6.40;99.90;;;;;;5056868;28;20164;-62
2021/12/02 02:38:41;;;;;;;9.30;2.17;;;6.40;99.90;;;;;;5056724;28;20260;-62
2021/12/02 02:41:09;;;;;;;8.35;2.13;;;6.40;99.90;;;;;;5056498;28;20276;-62
2021/12/02 02:43:36;;;;;;;8.82;2.10;;;6.50;99.90;;;;;;5056660;28;20182;-62
2021/12/02 02:46:02;;;;;;;5.45;1.48;;;6.50;99.90;;;;;;5055147;28;20219;-61
2021/12/02 02:48:30;;;;;;;7.60;2.40;;;6.40;99.90;;;;;;5055695;28;20182;-62
2021/12/02 02:50:56;;;;;;;3.20;1.73;;;6.50;99.90;;;;;;5056488;28;20642;-61
2021/12/02 02:53:25;;;;;;;5.10;1.10;;;6.30;99.90;;;;;;5056532;28;20175;-65
2021/12/02 03:01:07;;;;;;;0.98;0.60;;;5.20;99.90;;;;;;5055401;28;20383;-59
2021/12/02 03:08:40;;;;;;;0.47;0.20;;;4.80;99.90;;;;;;5055932;28;20283;-60
2021/12/02 03:11:10;;;;;;;2.37;0.50;;;4.80;99.90;;;;;;5056229;28;20212;-59
2021/12/02 03:13:48;;;;;;;2.05;0.65;;;4.90;99.90;;;;;;5054934;28;20179;-60
2021/12/02 03:18:58;;;;;;;3.80;0.55;;;4.80;99.90;;;;;;5056077;28;20209;-59
2021/12/02 03:21:24;;;;;;;1.67;0.63;;;4.70;99.90;;;;;;5055893;28;20190;-59
2021/12/02 03:24:00;;;;;;;2.60;0.50;;;4.70;99.90;;;;;;5038290;28;20214;-59
2021/12/02 03:26:27;;;;;;;1.20;0.40;;;4.70;99.90;;;;;;5054779;28;20562;-59
2021/12/02 03:28:53;;;;;;;1.75;0.45;;;5.00;99.90;;;;;;5054597;28;20624;-59
2021/12/02 03:31:20;;;;;;;1.00;0.55;;;5.10;99.90;;;;;;5054674;28;20265;-59
2021/12/02 03:33:46;;;;;;;3.60;0.73;;;5.20;99.90;;;;;;5055725;28;20678;-59
2021/12/02 03:36:14;;;;;;;1.70;0.60;;;5.30;99.90;;;;;;5054976;28;20175;-59
2021/12/02 03:38:40;;;;;;;4.53;0.63;;;5.30;99.90;;;;;;5055220;28;20643;-59
2021/12/02 03:41:06;;;;;;;3.05;0.68;;;5.20;99.90;;;;;;5054150;28;20186;-59
2021/12/02 03:43:40;;;;;;;3.35;0.60;;;5.10;99.90;;;;;;5055593;28;20171;-59
2021/12/02 03:46:07;;;;;;;2.55;0.90;;;5.10;99.90;;;;;;5055193;28;20177;-59
2021/12/02 03:48:35;;;;;;;4.60;1.10;;;5.20;99.90;;;;;;5055474;28;20168;-59
2021/12/02 03:51:01;;;;;;;4.13;0.80;;;5.20;99.90;;;;;;5038086;28;20568;-59
2021/12/02 03:53:27;;;;;;;3.92;0.90;;;5.20;99.90;;;;;;5055342;28;20186;-59
2021/12/02 03:55:52;;;;;;;4.47;0.65;;;5.30;99.90;;;;;;5054286;28;20617;-59
2021/12/02 03:58:18;;;;;;;3.60;0.73;;;5.30;99.90;;;;;;5053789;28;20213;-60
2021/12/02 04:00:44;;;;;;;2.92;1.10;;;5.50;99.90;;;;;;5055065;28;20246;-59
2021/12/02 04:03:09;;;;;;;2.08;0.90;;;5.50;99.90;;;;;;5055180;28;20273;-59
2021/12/02 04:05:35;;;;;;;3.15;1.20;;;5.50;99.90;;;;;;5054885;28;20186;-59
2021/12/02 04:08:01;;;;;;;2.38;1.40;;;5.40;99.90;;;;;;5054989;28;20183;-59
2021/12/02 04:10:27;;;;;;;7.53;1.45;;;5.30;99.90;;;;;;5055058;28;20269;-59
2021/12/02 04:15:30;;;;;;;3.25;1.52;;;5.50;99.90;;;;;;5054971;28;20178;-57
2021/12/02 04:17:56;;;;;;;5.20;1.65;;;5.50;99.90;;;;;;5054966;28;20229;-59
2021/12/02 04:20:24;;;;;;;3.08;1.55;;;5.50;99.90;;;;;;5054828;28;20234;-59
2021/12/02 04:22:51;;;;;;;3.55;1.40;;;5.50;99.90;;;;;;5054583;28;20197;-59
2021/12/02 04:25:19;;;;;;;4.00;1.30;;;5.50;99.90;;;;;;5054755;28;20660;-59
2021/12/02 04:27:45;;;;;;;4.73;1.30;;;5.50;99.90;;;;;;5054711;28;20174;-59
2021/12/02 04:30:14;;;;;;;3.20;1.60;;;5.50;99.90;;;;;;5054634;28;20253;-60
2021/12/02 04:32:40;;;;;;;5.72;1.30;;;5.60;99.90;;;;;;5054344;28;20180;-59
2021/12/02 04:35:06;;;;;;;4.13;1.02;;;5.50;99.90;;;;;;5054322;28;20167;-59
2021/12/02 04:37:32;;;;;;;3.75;1.20;;;5.40;99.90;;;;;;5054618;28;20175;-59
2021/12/02 04:39:58;;;;;;;4.68;1.10;;;5.30;99.90;;;;;;5053184;28;20210;-60
2021/12/02 04:42:24;;;;;;;4.05;1.10;;;5.20;99.90;;;;;;5054457;28;20545;-59
2021/12/02 04:44:50;;;;;;;2.65;1.10;;;5.20;99.90;;;;;;5054698;28;20564;-59
2021/12/02 04:47:16;;;;;;;2.85;0.68;;;5.20;99.90;;;;;;5054472;28;20186;-59
2021/12/02 04:49:42;;;;;;;4.85;0.98;;;5.10;99.90;;;;;;5053265;28;20213;-59
2021/12/02 04:52:08;;;;;;;3.63;0.70;;;4.90;99.90;;;;;;5052762;28;20182;-59
2021/12/02 04:54:34;;;;;;;1.50;0.57;;;4.80;99.90;;;;;;5054254;28;20250;-61
2021/12/02 04:57:00;;;;;;;4.00;0.82;;;4.80;99.90;;;;;;5054162;28;20189;-59
2021/12/02 04:59:26;;;;;;;2.17;0.60;;;5.00;99.90;;;;;;5054024;28;20537;-60
2021/12/02 05:01:51;;;;;;;4.68;0.90;;;5.10;99.90;;;;;;5054097;28;20181;-59
2021/12/02 05:04:17;;;;;;;5.10;1.23;;;5.20;99.90;;;;;;5054129;28;20292;-59
2021/12/02 05:06:43;;;;;;;3.75;0.90;;;5.20;99.90;;;;;;5054201;28;20209;-59
2021/12/02 05:09:09;;;;;;;4.23;1.00;;;5.20;99.90;;;;;;5035735;28;20194;-60
2021/12/02 05:11:34;;;;;;;6.50;1.50;;;5.30;99.90;;;;;;5052036;28;20690;-60
2021/12/02 05:14:01;;;;;;;10.23;1.38;;;5.20;99.90;;;;;;5054025;28;20613;-59
2021/12/02 05:16:26;;;;;;;4.22;0.95;;;5.10;99.90;;;;;;5052359;28;20195;-60
2021/12/02 05:18:52;;;;;;;5.60;1.03;;;5.10;99.90;;;;;;5054002;28;20269;-59
2021/12/02 05:21:18;;;;;;;3.65;0.98;;;4.60;99.90;;;;;;5019515;28;20179;-58
2021/12/02 05:23:44;;;;;;;3.03;0.87;;;4.20;99.90;;;;;;5053795;28;20184;-58
2021/12/02 05:26:10;;;;;;;2.50;0.90;;;4.10;99.90;;;;;;5052479;28;20196;-58
2021/12/02 05:28:36;;;;;;;2.83;1.00;;;4.10;99.90;;;;;;5035860;28;20182;-58
2021/12/02 05:31:02;;;;;;;3.57;1.00;;;4.00;99.90;;;;;;5053600;28;20179;-58
2021/12/02 05:33:28;;;;;;;1.93;0.80;;;4.00;99.90;;;;;;5052367;28;20186;-58
2021/12/02 05:35:54;;;;;;;4.20;0.90;;;4.10;99.90;;;;;;5052010;28;20178;-58
2021/12/02 05:38:20;;;;;;;2.60;0.70;;;4.20;99.90;;;;;;5053555;28;20182;-58
2021/12/02 05:40:45;;;;;;;4.67;0.93;;;4.30;99.90;;;;;;5035591;28;20618;-58
2021/12/02 05:43:11;;;;;;;3.43;0.90;;;4.30;99.90;;;;;;5053288;28;20189;-58
2021/12/02 05:45:37;;;;;;;2.72;0.70;;;4.40;99.90;;;;;;5052574;28;20595;-58
2021/12/02 05:48:02;;;;;;;4.70;0.90;;;4.30;99.90;;;;;;5053399;28;20182;-58
2021/12/02 05:50:28;;;;;;;5.50;0.80;;;4.30;99.90;;;;;;5053183;28;20182;-58
2021/12/02 05:52:54;;;;;;;5.13;1.00;;;4.20;99.90;;;;;;5053151;28;20178;-58
2021/12/02 05:55:20;;;;;;;2.78;0.80;;;4.30;99.90;;;;;;5053365;28;20265;-58
2021/12/02 05:57:46;;;;;;;6.78;1.23;;;4.30;99.90;;;;;;5053284;28;20205;-58
2021/12/02 06:00:12;;;;;;;3.70;1.00;;;4.20;99.90;;;;;;5052001;28;20237;-58
2021/12/02 06:02:38;;;;;;;5.27;1.20;;;4.20;99.90;;;;;;5053256;28;20185;-60
2021/12/02 06:05:05;;;;;;;6.47;1.47;;;4.30;99.90;;;;;;5056034;28;20185;-60
2021/12/02 06:07:31;;;;;;;5.95;1.88;;;4.40;99.90;;;;;;5056303;28;20194;-60
2021/12/02 06:09:57;;;;;;;9.13;2.00;;;4.50;99.90;;;;;;5056443;28;20536;-60
2021/12/02 06:12:22;;;;;;;6.90;2.00;;;4.70;99.90;;;;;;5057585;28;20179;-57
2021/12/02 06:14:48;;;;;;;13.53;2.80;;;4.90;99.90;;;;;;5055830;28;20198;-57
2021/12/02 06:17:17;;;;;;;9.73;2.50;;;4.90;99.90;;;;;;5056950;28;20194;-57
2021/12/02 06:19:43;;;;;;;11.57;2.58;;;4.90;99.90;;;;;;5055844;28;20685;-57
2021/12/02 06:22:09;;;;;;;9.10;2.10;;;4.90;99.90;;;;;;5057044;28;20261;-56
2021/12/02 06:24:48;;;;;;;12.00;2.30;;;4.90;99.90;;;;;;5055721;28;20189;-58
2021/12/02 06:27:15;;;;;;;13.57;3.13;;;4.90;99.90;;;;;;5056791;28;20642;-58
2021/12/02 06:29:40;;;;;;;9.02;2.58;;;4.90;99.90;;;;;;5055695;28;20651;-57
2021/12/02 06:32:08;;;;;;;10.68;2.70;;;5.00;99.90;;;;;;5056876;28;20218;-57
2021/12/02 06:34:34;;;;;;;13.18;2.85;;;4.90;99.90;;;;;;5056861;28;20210;-56
2021/12/02 06:37:00;;;;;;;21.20;12.17;;;4.50;99.90;;;;;;5055650;28;20181;-55
2021/12/02 06:39:25;;;;;;;10.13;2.73;;;4.30;99.90;;;;;;5056740;28;20242;-55
2021/12/02 06:41:51;;;;;;;9.87;3.17;;;4.20;99.90;;;;;;5056724;28;20186;-55
2021/12/02 06:44:17;;;;;;;15.47;3.17;;;4.20;99.90;;;;;;5056655;28;20619;-55
2021/12/02 06:46:42;;;;;;;9.80;3.07;;;4.20;99.90;;;;;;5056751;28;20184;-55
2021/12/02 06:49:08;;;;;;;8.27;2.33;;;4.20;99.90;;;;;;5038670;28;20277;-55
2021/12/02 06:51:34;;;;;;;7.17;1.67;;;4.20;99.90;;;;;;5056439;28;20186;-56
2021/12/02 06:54:00;;;;;;;6.07;1.27;;;4.20;99.90;;;;;;5056374;28;20222;-56
2021/12/02 06:56:26;;;;;;;3.53;1.30;;;4.00;99.90;;;;;;5056496;28;20236;-56
2021/12/02 06:58:52;;;;;;;1.33;0.80;;;3.60;99.90;;;;;;5055046;28;20175;-56
2021/12/02 07:01:17;;;;;;;1.57;0.30;;;3.20;99.90;;;;;;5054935;28;20579;-56
2021/12/02 07:03:43;;;;;;;1.90;0.40;;;2.70;99.90;;;;;;5056240;28;20292;-55
2021/12/02 07:06:09;;;;;;;1.13;0.40;;;2.30;99.90;;;;;;5056042;28;20261;-56
2021/12/02 07:08:35;;;;;;;0.40;0.40;;;2.00;99.90;;;;;;5056224;28;20172;-55
2021/12/02 07:11:05;;;;;;;2.80;0.60;;;1.90;99.90;;;;;;5055005;28;20175;-55
2021/12/02 07:13:31;;;;;;;0.60;0.53;;;1.80;99.90;;;;;;5056207;28;20167;-55
2021/12/02 07:15:59;;;;;;;1.13;1.03;;;1.80;99.90;;;;;;5054421;28;20599;-55
2021/12/02 07:18:25;;;;;;;1.80;1.60;;;1.90;99.90;;;;;;5056077;28;20187;-56
2021/12/02 07:20:51;;;;;;;2.87;1.97;;;1.90;99.90;;;;;;5054740;28;20210;-56
2021/12/02 07:23:19;;;;;;;1.40;0.60;;;1.90;99.90;;;;;;5037848;28;20195;-56
2021/12/02 07:25:46;;;;;;;3.93;2.00;;;1.90;99.90;;;;;;5055957;28;20172;-55
2021/12/02 07:28:14;;;;;;;2.47;0.90;;;2.00;99.90;;;;;;5055504;28;20194;-55
2021/12/02 07:30:40;;;;;;;2.60;1.53;;;2.10;99.90;;;;;;5055687;28;20221;-55
2021/12/02 07:33:09;;;;;;;2.70;1.67;;;2.20;99.90;;;;;;5055741;28;20586;-56
2021/12/02 07:35:35;;;;;;;2.27;1.37;;;2.20;99.90;;;;;;5055729;28;20182;-56
2021/12/02 07:38:02;;;;;;;3.57;2.00;;;2.40;99.90;;;;;;5055479;28;20171;-56
2021/12/02 07:40:36;;;;;;;3.33;1.63;;;2.50;99.90;;;;;;5054394;28;20261;-57
2021/12/02 07:43:03;;;;;;;2.93;1.50;;;2.60;99.90;;;;;;5055498;28;20191;-56
2021/12/02 07:45:36;;;;;;;3.77;1.47;;;2.70;99.90;;;;;;5054296;28;20187;-57
2021/12/02 07:48:04;;;;;;;4.10;1.10;;;2.90;99.90;;;;;;5055527;28;20159;-57
2021/12/02 07:50:30;;;;;;;4.90;1.80;;;3.00;99.90;;;;;;5055412;28;20206;-57
2021/12/02 07:53:00;;;;;;;4.23;1.30;;;3.10;99.90;;;;;;5054238;28;20641;-56
2021/12/02 07:55:26;;;;;;;4.27;1.20;;;3.10;99.90;;;;;;5055395;28;20182;-57
2021/12/02 07:57:53;;;;;;;2.77;1.00;;;3.20;99.90;;;;;;5055649;28;20216;-57
2021/12/02 08:00:22;;;;;;;6.60;1.37;;;3.20;99.90;;;;;;5053745;28;20683;-57
2021/12/02 08:02:51;;;;;;;5.07;1.63;;;3.30;99.90;;;;;;5055203;28;20209;-56
2021/12/02 08:05:17;;;;;;;6.73;2.20;;;3.30;99.90;;;;;;5053950;28;20269;-57
2021/12/02 08:07:44;;;;;;;5.07;1.53;;;3.40;99.90;;;;;;5053948;28;20214;-57
2021/12/02 08:10:12;;;;;;;5.87;1.70;;;3.60;99.90;;;;;;5054749;28;20674;-57
2021/12/02 08:12:40;;;;;;;2.23;1.03;;;3.70;99.90;;;;;;5054775;28;20653;-58
2021/12/02 08:15:08;;;;;;;2.30;1.10;;;3.60;99.90;;;;;;5053549;28;20182;-57
2021/12/02 08:17:34;;;;;;;2.83;0.90;;;3.60;99.90;;;;;;5055187;28;20205;-57
2021/12/02 08:20:00;;;;;;;2.10;1.03;;;3.70;99.90;;;;;;5053584;28;20203;-57
2021/12/02 08:22:26;;;;;;;1.80;0.67;;;3.80;99.90;;;;;;5054930;28;20187;-57
2021/12/02 08:24:52;;;;;;;4.77;1.10;;;3.70;99.90;;;;;;5054809;28;20218;-57
2021/12/02 08:27:18;;;;;;;4.00;1.17;;;3.70;99.90;;;;;;5054172;28;20628;-57
2021/12/02 08:29:44;;;;;;;3.77;1.20;;;3.80;99.90;;;;;;5054669;28;20193;-57
2021/12/02 08:32:10;;;;;;;4.03;1.30;;;3.80;99.90;;;;;;5053515;28;20190;-57
2021/12/02 08:34:35;;;;;;;4.37;1.10;;;3.80;99.90;;;;;;5054922;28;20182;-58
2021/12/02 08:37:01;;;;;;;7.63;1.40;;;3.80;99.90;;;;;;5054577;28;20179;-57
2021/12/02 08:39:28;;;;;;;5.20;1.57;;;3.90;99.90;;;;;;5054442;28;20206;-57
2021/12/02 08:41:55;;;;;;;4.67;1.23;;;3.90;99.90;;;;;;5053300;28;20263;-58
2021/12/02 08:44:25;;;;;;;6.90;1.50;;;3.90;99.90;;;;;;5054449;28;20182;-58
2021/12/02 08:46:53;;;;;;;6.70;2.03;;;4.00;99.90;;;;;;5053979;28;20248;-58
2021/12/02 08:49:19;;;;;;;5.57;1.53;;;4.00;99.90;;;;;;5054037;28;20183;-58
2021/12/02 08:51:45;;;;;;;5.57;1.40;;;4.10;99.90;;;;;;5054279;28;20250;-58
2021/12/02 08:54:15;;;;;;;4.73;1.53;;;4.20;99.90;;;;;;5054075;28;20194;-58
2021/12/02 08:56:41;;;;;;;5.53;1.73;;;4.20;99.90;;;;;;5054147;28;20190;-58
2021/12/02 08:59:07;;;;;;;9.97;3.03;;;4.40;99.90;;;;;;5054032;28;20211;-58
2021/12/02 09:01:33;;;;;;;8.93;2.10;;;4.60;99.90;;;;;;5054072;28;20232;-58
2021/12/02 09:04:02;;;;;;;9.43;2.20;;;4.70;99.90;;;;;;5052909;28;20185;-58
2021/12/02 09:06:28;;;;;;;9.40;2.47;;;4.80;99.90;;;;;;5054033;28;20174;-58
2021/12/02 09:08:56;;;;;;;6.85;2.33;;;4.90;99.90;;;;;;5053632;28;20655;-58
2021/12/02 09:11:22;;;;;;;6.15;1.95;;;4.80;99.90;;;;;;5053880;28;20190;-58
2021/12/02 09:13:48;;;;;;;4.60;1.70;;;4.80;99.90;;;;;;5053913;28;20178;-58
2021/12/02 09:16:14;;;;;;;2.97;1.20;;;4.30;99.90;;;;;;5053820;28;20651;-57
2021/12/02 09:18:40;;;;;;;4.20;1.00;;;3.90;99.90;;;;;;5052662;28;20186;-57
2021/12/02 09:21:06;;;;;;;11.93;1.67;;;3.70;99.90;;;;;;5053334;28;20675;-56
2021/12/02 09:23:32;;;;;;;7.53;1.43;;;3.90;99.90;;;;;;5053725;28;20182;-56
2021/12/02 09:25:58;;;;;;;5.60;1.50;;;3.70;99.90;;;;;;5053464;28;20178;-55
2021/12/02 09:28:25;;;;;;;7.53;1.77;;;3.60;99.90;;;;;;5053710;28;20178;-55
2021/12/02 09:30:51;;;;;;;8.77;1.70;;;3.40;99.90;;;;;;5053594;28;20213;-56
2021/12/02 09:33:18;;;;;;;10.57;2.07;;;3.20;99.90;;;;;;5052168;28;20182;-56
2021/12/02 09:35:44;;;;;;;7.27;2.13;;;3.10;99.90;;;;;;5053618;28;20206;-55
2021/12/02 09:38:10;;;;;;;4.03;1.13;;;3.20;99.90;;;;;;5052907;28;20629;-56
2021/12/02 09:40:37;;;;;;;4.47;1.50;;;3.10;99.90;;;;;;5052054;28;20206;-55
2021/12/02 09:43:03;;;;;;;5.23;1.20;;;3.20;99.90;;;;;;5035632;28;20277;-56
2021/12/02 09:45:29;;;;;;;5.00;1.20;;;3.40;99.90;;;;;;5053247;28;20515;-55
2021/12/02 09:47:54;;;;;;;3.40;1.53;;;3.60;99.90;;;;;;5053423;28;20182;-57
2021/12/02 09:50:31;;;;;;;2.03;1.00;;;3.70;99.90;;;;;;5053389;28;20186;-56
2021/12/02 09:53:05;;;;;;;3.87;1.50;;;3.70;99.90;;;;;;5053254;28;20170;-57
2021/12/02 09:55:36;;;;;;;2.17;0.90;;;3.70;99.90;;;;;;5053358;28;20174;-57
2021/12/02 09:58:05;;;;;;;4.40;1.40;;;3.50;99.90;;;;;;5053325;28;20190;-58
2021/12/02 10:03:16;;;;;;;3.07;1.00;;;3.60;99.90;;;;;;5052198;28;20167;-57
2021/12/02 10:06:03;;;;;;;5.37;1.50;;;3.70;99.90;;;;;;5053260;28;20171;-57
2021/12/02 10:08:32;;;;;;;4.67;1.30;;;3.70;99.90;;;;;;5037807;28;20272;-57
2021/12/02 10:11:08;;;;;;;4.33;1.13;;;3.80;99.90;;;;;;5052127;28;20253;-57
2021/12/02 10:13:47;;;;;;;5.13;1.20;;;3.80;99.90;;;;;;5052126;28;20162;-57
2021/12/02 10:16:38;;;;;;;3.13;1.07;;;3.80;99.90;;;;;;5051725;28;20271;-57
2021/12/02 10:24:11;;;;;;;4.10;1.40;;;4.20;99.90;;;;;;5053177;28;20245;-58
2021/12/02 10:26:40;;;;;;;3.05;1.30;;;4.30;99.90;;;;;;5053147;28;20174;-57
2021/12/02 10:29:15;;;;;;;6.65;1.60;;;4.40;99.90;;;;;;5052968;28;20666;-58
2021/12/02 10:31:46;;;;;;;5.03;1.52;;;4.50;99.90;;;;;;5053122;28;20522;-58
2021/12/02 10:34:13;;;;;;;6.97;1.60;;;4.60;99.90;;;;;;5053053;28;20703;-58
2021/12/02 10:36:44;;;;;;;4.25;1.50;;;4.70;99.90;;;;;;5052942;28;20190;-58
2021/12/02 10:39:16;;;;;;;4.30;1.40;;;4.40;99.90;;;;;;5052817;28;20208;-59
2021/12/02 10:41:44;;;;;;;3.90;1.53;;;4.30;99.90;;;;;;5052957;28;20632;-58
2021/12/02 10:44:14;;;;;;;4.17;1.37;;;4.30;99.90;;;;;;5051724;28;20178;-58
2021/12/02 10:46:57;;;;;;;2.17;0.80;;;4.20;99.90;;;;;;5053044;28;20285;-57
2021/12/02 10:49:25;;;;;;;3.17;1.07;;;3.90;99.90;;;;;;5052828;28;20178;-56
2021/12/02 10:51:54;;;;;;;3.03;0.87;;;3.80;99.90;;;;;;5056513;28;20187;-56
2021/12/02 10:54:27;;;;;;;2.27;0.60;;;3.50;99.90;;;;;;5056575;28;20188;-56
2021/12/02 10:57:00;;;;;;;2.10;0.77;;;3.30;99.90;;;;;;5056582;28;20224;-57
2021/12/02 10:59:42;;;;;;;2.20;1.70;;;3.30;99.90;;;;;;5056375;28;20226;-57
2021/12/02 11:02:17;;;;;;;7.40;5.73;;;3.20;99.90;;;;;;5056531;28;20190;-57
2021/12/02 11:04:45;;;;;;;7.80;6.23;;;3.10;99.90;;;;;;5056343;28;20154;-57
2021/12/02 11:07:22;;;;;;;7.40;5.37;;;3.10;99.90;;;;;;5056368;28;20179;-57
2021/12/02 11:09:50;;;;;;;9.60;6.27;;;3.10;99.90;;;;;;5056035;28;20566;-57
2021/12/02 11:12:17;;;;;;;7.07;4.77;;;3.10;99.90;;;;;;5056215;28;20248;-57
2021/12/02 11:14:53;;;;;;;2.63;1.60;;;3.00;99.90;;;;;;5056087;28;20626;-57
2021/12/02 11:17:19;;;;;;;1.57;0.93;;;2.90;99.90;;;;;;5056298;28;20197;-57
2021/12/02 11:19:50;;;;;;;1.33;1.00;;;2.90;99.90;;;;;;5055989;28;20202;-57
2021/12/02 11:22:21;;;;;;;3.03;1.17;;;3.00;99.90;;;;;;5055826;28;20163;-57
2021/12/02 11:24:48;;;;;;;4.40;1.90;;;3.10;99.90;;;;;;5054630;28;20179;-57
2021/12/02 11:27:38;;;;;;;8.10;4.33;;;3.10;99.90;;;;;;5055678;28;20735;-57
2021/12/02 11:30:13;;;;;;;7.67;5.23;;;3.20;99.90;;;;;;5055947;28;20220;-57
2021/12/02 11:33:03;;;;;;;3.23;1.80;;;3.20;99.90;;;;;;5055766;28;20230;-57
2021/12/02 11:35:33;;;;;;;2.93;0.80;;;3.30;99.90;;;;;;5050719;28;20262;-57
2021/12/02 11:38:10;;;;;;;1.80;0.87;;;3.30;99.90;;;;;;5056017;28;20209;-57
2021/12/02 11:40:45;;;;;;;0.90;0.80;;;3.40;99.90;;;;;;5055331;28;20532;-57
2021/12/02 11:43:13;;;;;;;2.93;1.00;;;3.40;99.90;;;;;;5055532;28;20182;-57
2021/12/02 11:45:49;;;;;;;3.23;1.37;;;3.60;99.90;;;;;;5055745;28;20183;-57
2021/12/02 11:48:27;;;;;;;1.27;1.00;;;3.70;99.90;;;;;;5055581;28;20188;-57
2021/12/02 11:50:55;;;;;;;2.57;1.30;;;3.80;99.90;;;;;;5055535;28;20162;-57
2021/12/02 11:53:22;;;;;;;1.93;1.10;;;3.90;99.90;;;;;;5055414;28;20174;-58
2021/12/02 11:55:52;;;;;;;4.43;1.20;;;4.00;99.90;;;;;;5055444;28;20629;-58
2021/12/02 11:58:18;;;;;;;2.73;1.10;;;4.10;99.90;;;;;;5055372;28;20527;-57
2021/12/02 12:00:45;;;;;;;1.97;0.90;;;4.20;99.90;;;;;;5055113;28;20210;-58
2021/12/02 12:03:15;;;;;;;0.87;0.80;;;4.10;99.90;;;;;;5054664;28;20194;-58
2021/12/02 12:06:02;;;;;;;1.70;1.10;;;4.30;99.90;;;;;;5055504;28;20638;-58
2021/12/02 12:08:45;;;;;;;1.90;1.00;;;4.30;99.90;;;;;;5054801;28;20619;-57
2021/12/02 12:11:42;;;;;;;1.67;1.00;;;4.40;99.90;;;;;;5055104;28;20171;-58
2021/12/02 12:14:11;;;;;;;1.20;1.02;;;4.50;99.90;;;;;;5055073;28;20273;-58
2021/12/02 12:16:49;;;;;;;2.77;1.30;;;4.50;99.90;;;;;;5055091;28;20230;-58
2021/12/02 12:19:33;;;;;;;2.13;1.15;;;4.50;99.90;;;;;;5054914;28;20203;-58
2021/12/02 12:22:02;;;;;;;3.05;1.30;;;4.60;99.90;;;;;;5054923;28;20167;-58
2021/12/02 12:24:50;;;;;;;3.90;1.58;;;4.70;99.90;;;;;;5054922;28;20632;-58
2021/12/02 12:27:37;;;;;;;3.33;1.53;;;4.80;99.90;;;;;;5054859;28;20159;-58
2021/12/02 12:30:13;;;;;;;2.50;1.40;;;4.80;99.90;;;;;;5055057;28;20540;-58
2021/12/02 12:32:57;;;;;;;2.83;1.50;;;4.90;99.90;;;;;;5054749;28;20159;-58
2021/12/02 12:35:47;;;;;;;2.07;1.20;;;5.00;99.90;;;;;;5054651;28;20181;-58
2021/12/02 12:38:26;;;;;;;4.38;1.40;;;5.10;99.90;;;;;;5054622;28;20194;-59
2021/12/02 12:40:56;;;;;;;2.88;1.40;;;5.20;99.90;;;;;;5054239;28;20219;-58
2021/12/02 12:43:33;;;;;;;4.80;1.83;;;5.50;99.90;;;;;;5054483;28;20175;-58
2021/12/02 12:46:23;;;;;;;3.35;1.40;;;5.70;99.90;;;;;;5054624;28;20203;-59
2021/12/02 12:48:51;;;;;;;2.97;1.40;;;6.00;99.90;;;;;;5054443;28;20163;-58
2021/12/02 12:51:35;;;;;;;4.38;1.95;;;6.00;99.90;;;;;;5054274;28;20632;-58
2021/12/02 12:54:04;;;;;;;0.90;0.75;;;5.50;99.90;;;;;;5054239;28;20544;-58
2021/12/02 12:56:40;;;;;;;1.37;0.70;;;5.00;99.90;;;;;;5054275;28;20182;-57
2021/12/02 12:59:17;;;;;;;0.83;0.50;;;4.50;99.90;;;;;;5052865;28;20182;-57
2021/12/02 13:02:00;;;;;;;0.43;0.43;;;4.10;99.90;;;;;;5052935;28;20185;-57
2021/12/02 13:04:27;;;;;;;0.80;0.30;;;3.90;99.90;;;;;;5054152;28;20166;-57
2021/12/02 13:06:56;;;;;;;0.63;0.30;;;3.80;99.90;;;;;;5052511;28;20182;-58
2021/12/02 13:10:10;;;;;;;0.50;0.50;;;3.80;99.90;;;;;;5054030;28;20215;-57
2021/12/02 13:12:48;;;;;;;0.23;0.23;;;3.70;99.90;;;;;;5047609;28;20260;-57
2021/12/02 13:15:21;;;;;;;1.60;0.30;;;3.80;99.90;;;;;;5053885;28;20183;-57
2021/12/02 13:17:51;;;;;;;1.30;0.90;;;3.90;99.90;;;;;;5053868;28;20190;-57
2021/12/02 13:20:26;;;;;;;6.33;5.43;;;3.90;99.90;;;;;;5053778;28;20680;-58
2021/12/02 13:23:28;;;;;;;3.77;2.90;;;4.00;99.90;;;;;;5053820;28;20200;-57
2021/12/02 13:26:06;;;;;;;1.13;1.03;;;4.20;99.90;;;;;;5011696;28;20192;-57
2021/12/02 13:28:35;;;;;;;2.30;1.00;;;4.40;99.90;;;;;;5048966;28;20190;-58
2021/12/02 13:31:08;;;;;;;1.20;1.10;;;4.40;99.90;;;;;;5053391;28;20186;-57
2021/12/02 13:33:44;;;;;;;1.13;1.00;;;4.50;99.90;;;;;;5053600;28;20539;-58
2021/12/02 13:36:12;;;;;;;1.63;1.40;;;4.60;99.90;;;;;;5053541;28;20650;-58